Latest Weather Observations for Coober Pedy Airport

IDS60801

Issued at 6:02 am CDT Thursday 18 December 2014 (issued every 30 minutes, with the page automatically refreshed every 10 minutes)

About weather observations | Map of weather stations | Latest weather observations for SA | Other Formats
Station Details ID: 016090 Name: COOBER PEDY AIRPORT Lat: -29.03 Lon: 134.72 Height: 225.0 m
Data from the previous 72 hours. | See also: Recent months at Coober Pedy Airport
Date/Time
CDT
Temp
°C
App
Temp
°C
Dew
Point
Rel
Hum
%
Delta-T
°C
Wind Press
QNH
hPa
Press
MSL
hPa
Rain
since 9 am
mm
Dir
 
Spd
km/h
Gust
km/h
Spd
kts
Gust
kts
18/06:00am 26.5 23.5 1.7 20 12.1 SE 7 11 4 6 1009.4 1008.0 0.0
18/05:30am 27.1 24.3 2.9 21 12.1 SE 7 9 4 5 1009.0 1007.6 0.0
18/05:00am 27.8 25.8 4.2 22 12.1 S 4 7 2 4 1008.8 1007.4 0.0
18/04:30am 28.0 25.7 5.6 24 11.8 W 7 15 4 8 1008.5 1007.1 0.0
18/04:00am 27.3 24.2 3.7 22 11.9 NNW 9 9 5 5 1008.3 1006.9 0.0
18/03:30am 28.0 24.8 3.0 20 12.6 NNW 9 13 5 7 1008.4 1007.0 0.0
18/03:00am 28.0 25.5 3.7 21 12.4 N 6 9 3 5 1008.3 1006.9 0.0
18/02:30am 28.4 26.2 3.3 20 12.7 ESE 4 7 2 4 1008.5 1007.1 0.0
18/02:00am 28.8 26.6 3.6 20 12.8 SSE 4 7 2 4 1008.6 1007.2 0.0
18/01:30am 29.2 26.0 3.2 19 13.2 SSE 9 11 5 6 1008.7 1007.3 0.0
18/01:00am 28.8 27.3 2.9 19 13.0 CALM 0 0 0 0 1009.0 1007.6 0.0
18/12:30am 29.2 27.7 3.2 19 13.2 CALM 0 0 0 0 1009.2 1007.8 0.0
18/12:00am 29.1 26.4 2.4 18 13.4 SSW 6 7 3 4 1009.3 1007.9 0.0
 
Date/Time
CDT
Temp
°C
App
Temp
°C
Dew
Point
Rel
Hum
%
Delta-T
°C
Wind Press
QNH
hPa
Press
MSL
hPa
Rain
since 9 am
mm
Dir
 
Spd
km/h
Gust
km/h
Spd
kts
Gust
kts
17/11:30pm 29.5 26.1 1.9 17 13.7 SSW 9 11 5 6 1009.1 1007.7 0.0
17/11:00pm 29.8 25.7 2.1 17 13.8 SW 13 15 7 8 1008.7 1007.3 0.0
17/10:30pm 29.9 26.7 3.0 18 13.7 SW 9 11 5 6 1008.7 1007.3 0.0
17/10:00pm 30.4 27.1 2.6 17 14.1 S 9 11 5 6 1007.6 1006.3 0.0
17/09:30pm 30.4 27.1 2.6 17 14.1 SSW 9 11 5 6 1007.6 1006.3 0.0
17/09:00pm 30.5 26.5 2.7 17 14.1 SW 13 15 7 8 1007.5 1006.2 0.0
17/08:30pm 30.8 25.7 2.9 17 14.3 SSW 19 22 10 12 1007.7 1006.4 0.0
17/08:00pm 31.1 26.6 2.3 16 14.6 SW 15 20 8 11 1007.8 1006.5 0.0
17/07:30pm 31.5 26.6 1.8 15 15.0 SSW 17 26 9 14 1006.7 1005.4 0.0
17/07:00pm 31.8 26.9 2.0 15 15.1 S 17 24 9 13 1006.5 1005.2 0.0
17/06:30pm 31.8 27.7 2.0 15 15.1 WSW 13 22 7 12 1006.2 1004.9 0.0
17/06:00pm 31.9 27.0 2.1 15 15.1 SW 17 26 9 14 1006.6 1005.3 0.0
17/05:30pm 32.0 27.0 1.2 14 15.4 WSW 17 24 9 13 1006.9 1005.6 0.0
17/05:00pm 32.2 26.8 1.3 14 15.5 SW 19 30 10 16 1007.0 1005.7 0.0
17/04:30pm 32.6 28.1 -0.5 12 16.2 SW 13 26 7 14 1007.0 1005.7 0.0
17/04:00pm 32.4 26.5 -0.6 12 16.1 SW 20 28 11 15 1007.0 1005.7 0.0
17/03:30pm 31.5 26.1 -1.3 12 15.7 SSW 17 26 9 14 1007.6 1006.3 0.0
17/03:00pm 30.8 25.9 -0.8 13 15.2 WSW 15 26 8 14 1008.2 1006.8 0.0
17/02:30pm 29.9 25.8 -0.5 14 14.6 SSW 11 19 6 10 1008.7 1007.3 0.0
17/02:00pm 29.3 26.1 0.9 16 13.9 W 7 17 4 9 1009.1 1007.7 0.0
17/01:30pm 27.6 23.6 0.4 17 13.0 ESE 11 15 6 8 1009.6 1008.2 0.0
17/01:00pm 26.7 22.7 0.4 18 12.5 SSE 11 17 6 9 1010.1 1008.8 0.0
17/12:30pm 26.2 23.1 3.4 23 11.4 SE 9 17 5 9 1010.5 1009.2 0.0
17/12:00pm 24.2 19.9 3.5 26 10.2 SSE 15 24 8 13 1010.9 1009.6 0.0
17/11:30am 23.7 19.6 4.6 29 9.6 SE 15 24 8 13 1011.1 1009.8 0.0
17/11:00am 22.3 17.4 5.3 33 8.6 SSE 20 30 11 16 1011.3 1010.0 0.0
17/10:30am 22.0 17.7 5.4 34 8.4 SE 17 26 9 14 1011.8 1010.5 0.0
17/10:00am 20.9 16.7 5.7 37 7.7 SSE 17 24 9 13 1012.0 1010.7 0.0
17/09:30am 19.5 15.0 5.9 41 6.8 SSE 19 26 10 14 1012.3 1011.0 0.0
17/09:00am 19.3 15.2 6.1 42 6.6 SE 17 24 9 13 1012.4 1011.1 0.0
17/08:30am 18.1 13.5 6.3 46 5.9 SSE 20 28 11 15 1012.1 1010.8 0.0
17/08:00am 17.3 13.7 6.8 50 5.3 SSE 15 24 8 13 1012.1 1010.8 0.0
17/07:30am 16.6 13.1 7.0 53 4.8 S 15 19 8 10 1012.0 1010.7 0.0
17/07:00am 16.2 12.3 6.9 54 4.6 S 17 20 9 11 1011.2 1009.9 0.0
17/06:30am 16.1 12.2 7.1 55 4.5 S 17 24 9 13 1011.0 1009.7 0.0
17/06:00am 16.4 11.9 7.1 54 4.7 S 20 26 11 14 1010.3 1009.0 0.0
17/05:30am 16.6 11.4 7.3 54 4.7 S 24 28 13 15 1009.7 1008.3 0.0
17/05:00am 17.2 12.0 7.3 52 5.0 SSE 24 30 13 16 1009.8 1008.4 0.0
17/04:30am 17.7 12.1 7.2 50 5.3 S 26 35 14 19 1009.2 1007.8 0.0
17/04:00am 18.0 12.1 7.7 51 5.3 S 28 35 15 19 1008.9 1007.5 0.0
17/03:30am 18.7 12.9 7.8 49 5.6 S 28 33 15 18 1009.0 1007.6 0.0
17/03:00am 19.3 12.8 8.0 48 5.9 S 32 39 17 21 1008.6 1007.2 0.0
17/02:30am 19.7 12.9 7.8 46 6.2 S 33 41 18 22 1008.7 1007.3 0.0
17/02:00am 20.3 13.4 6.6 41 7.0 S 32 39 17 21 1008.9 1007.5 0.0
17/01:30am 21.0 13.0 5.8 37 7.7 S 37 44 20 24 1008.8 1007.4 0.0
17/01:00am 21.8 13.4 5.7 35 8.1 S 39 52 21 28 1008.6 1007.2 0.0
17/12:30am 22.6 13.5 6.0 34 8.5 S 43 52 23 28 1008.7 1007.3 0.0
17/12:00am 23.6 14.7 5.0 30 9.4 S 41 50 22 27 1008.6 1007.2 0.0
 
Date/Time
CDT
Temp
°C
App
Temp
°C
Dew
Point
Rel
Hum
%
Delta-T
°C
Wind Press
QNH
hPa
Press
MSL
hPa
Rain
since 9 am
mm
Dir
 
Spd
km/h
Gust
km/h
Spd
kts
Gust
kts
16/11:30pm 24.6 15.3 4.9 28 10.0 S 43 52 23 28 1008.4 1007.0 0.0
16/11:00pm 25.4 16.1 5.1 27 10.4 S 43 50 23 27 1008.2 1006.8 0.0
16/10:30pm 26.5 17.7 5.5 26 10.9 S 41 50 22 27 1008.1 1006.7 0.0
16/10:00pm 28.0 19.5 5.0 23 11.9 S 39 48 21 26 1007.6 1006.3 0.0
16/09:30pm 28.7 19.9 7.3 26 11.6 S 43 52 23 28 1007.1 1005.8 0.0
16/09:00pm 29.7 21.1 8.2 26 11.9 S 43 56 23 30 1006.6 1005.3 0.0
16/08:30pm 31.0 23.7 8.7 25 12.6 S 37 50 20 27 1006.1 1004.8 0.0
16/08:00pm 32.2 24.0 8.4 23 13.4 S 41 50 22 27 1005.7 1004.3 0.0
16/07:30pm 33.7 26.3 8.3 21 14.4 SSW 37 50 20 27 1005.2 1003.8 0.0
16/07:00pm 35.1 28.2 8.8 20 15.1 SSW 35 44 19 24 1004.8 1003.4 0.0
16/06:30pm 35.4 29.1 9.0 20 15.2 SSW 32 46 17 25 1004.5 1003.1 0.0
16/06:00pm 36.8 30.4 9.4 19 16.0 SW 33 44 18 24 1004.2 1002.8 0.0
16/05:30pm 35.7 29.5 11.4 23 14.6 SW 35 52 19 28 1004.1 1002.7 0.0
16/05:00pm 37.8 31.3 11.7 21 15.8 SW 37 52 20 28 1003.9 1002.5 0.0
16/04:30pm 37.2 31.5 11.2 21 15.6 SW 32 46 17 25 1004.0 1002.6 0.0
16/04:16pm 38.5 33.7 11.5 20 16.3 SW 28 46 15 25 1004.0 1002.6 0.0
16/04:00pm 37.5 33.6 12.2 22 15.4 WSW 24 43 13 23 1004.2 1002.8 0.0
16/03:30pm 38.2 34.0 13.4 23 15.4 WSW 28 48 15 26 1004.4 1003.0 0.0
16/03:23pm 38.3 33.5 12.8 22 15.7 WSW 30 48 16 26 1004.4 1003.0 0.0
16/03:00pm 37.5 34.0 13.5 24 14.9 SW 24 39 13 21 1004.5 1003.1 0.0
16/02:30pm 36.7 32.5 13.5 25 14.4 SW 28 44 15 24 1004.7 1003.3 0.0
16/02:00pm 36.6 32.4 13.4 25 14.3 W 28 39 15 21 1005.0 1003.6 0.0
16/01:30pm 36.4 32.7 13.8 26 14.1 W 26 43 14 23 1005.3 1003.9 0.0
16/01:09pm 36.2 31.3 13.6 25 14.0 W 32 50 17 27 1005.6 1004.2 0.0
16/01:00pm 35.7 31.2 13.8 27 13.6 W 30 44 16 24 1005.7 1004.3 0.0
16/12:38pm 36.3 31.2 13.7 25 14.0 W 33 54 18 29 1006.0 1004.7 0.0
16/12:30pm 35.3 30.3 13.5 27 13.4 W 32 44 17 24 1006.0 1004.7 0.0
16/12:00pm 35.6 29.7 13.7 27 13.6 W 37 50 20 27 1006.0 1004.7 0.0
16/11:42am 35.4 30.8 13.5 26 13.5 WSW 30 48 16 26 1005.9 1004.5 0.0
16/11:30am 34.9 28.5 13.1 27 13.3 W 39 52 21 28 1006.1 1004.8 0.0
16/11:00am 34.6 28.1 12.9 27 13.2 W 39 59 21 32 1006.0 1004.7 0.0
16/10:53am 34.9 29.0 12.5 25 13.6 W 35 59 19 32 1006.1 1004.8 0.0
16/10:47am 35.4 29.3 13.0 26 13.7 WNW 37 52 20 28 1006.1 1004.8 0.0
16/10:30am 34.8 29.3 12.5 26 13.5 NW 33 48 18 26 1005.9 1004.5 0.0
16/10:00am 33.5 28.0 11.9 27 12.9 NW 32 39 17 21 1006.0 1004.7 0.0
16/09:30am 32.7 27.2 11.8 28 12.4 NW 32 39 17 21 1006.1 1004.8 0.0
16/09:00am 31.9 27.3 11.1 28 12.2 NNW 26 37 14 20 1006.3 1005.0 0.0
16/08:30am 30.8 26.2 9.6 27 12.1 NNW 24 33 13 18 1006.2 1004.9 0.0
16/08:00am 29.9 26.0 9.4 28 11.6 NNW 20 26 11 14 1006.1 1004.8 0.0
16/07:30am 29.0 25.6 9.2 29 11.1 NW 17 20 9 11 1005.7 1004.3 0.0
16/07:00am 27.9 24.0 8.7 30 10.6 NNW 19 22 10 12 1005.4 1004.0 0.0
16/06:30am 28.3 24.6 9.6 31 10.6 NNW 19 20 10 11 1005.1 1003.7 0.0
16/06:00am 28.4 24.9 10.1 32 10.4 NNW 19 24 10 13 1004.5 1003.1 0.0
16/05:30am 28.6 25.1 10.8 33 10.3 NNW 20 24 11 13 1004.2 1002.8 0.0
16/05:00am 28.9 24.6 10.6 32 10.5 NNW 24 30 13 16 1004.1 1002.7 0.0
16/04:30am 28.9 26.0 11.0 33 10.4 WNW 17 20 9 11 1004.2 1002.8 0.0
16/04:00am 30.2 24.9 9.7 28 11.7 WNW 28 35 15 19 1005.1 1003.7 0.0
16/03:30am 30.5 24.8 8.3 25 12.4 W 28 35 15 19 1005.3 1003.9 0.0
16/03:00am 30.6 23.0 7.7 24 12.7 W 37 52 20 28 1005.2 1003.8 0.0
16/02:30am 30.2 24.8 8.0 25 12.3 W 26 35 14 19 1005.7 1004.3 0.0
16/02:00am 30.6 25.8 4.4 19 13.7 W 19 28 10 15 1006.0 1004.7 0.0
16/01:30am 29.9 24.2 3.0 18 13.7 W 22 30 12 16 1006.7 1005.4 0.0
16/01:00am 29.2 24.6 3.9 20 13.0 WSW 17 19 9 10 1006.5 1005.2 0.0
16/12:30am 29.4 26.8 4.1 20 13.1 SE 7 9 4 5 1004.6 1003.2 0.0
16/12:00am 29.8 25.7 4.4 20 13.2 SSW 15 17 8 9 1004.8 1003.4 0.0
 
Date/Time
CDT
Temp
°C
App
Temp
°C
Dew
Point
Rel
Hum
%
Delta-T
°C
Wind Press
QNH
hPa
Press
MSL
hPa
Rain
since 9 am
mm
Dir
 
Spd
km/h
Gust
km/h
Spd
kts
Gust
kts
15/11:30pm 30.0 27.0 3.9 19 13.5 SSE 9 9 5 5 1005.1 1003.7 0.0
15/11:00pm 30.5 26.8 4.3 19 13.6 S 13 15 7 8 1004.4 1003.0 0.0
15/10:30pm 31.4 27.3 4.2 18 14.3 SSE 15 15 8 8 1004.1 1002.7 0.0
15/10:00pm 31.4 27.1 3.4 17 14.4 S 15 17 8 9 1004.5 1003.1 0.0
15/09:30pm 32.1 29.1 4.0 17 14.8 S 9 11 5 6 1004.1 1002.7 0.0
15/09:00pm 32.7 28.8 3.6 16 15.2 SSW 13 15 7 8 1004.2 1002.8 0.0
15/08:30pm 33.7 28.9 2.5 14 16.1 SW 17 20 9 11 1003.8 1002.4 0.0
15/08:00pm 34.8 27.9 2.3 13 16.8 SW 28 35 15 19 1003.6 1002.2 0.0
15/07:30pm 35.5 28.3 2.9 13 17.1 SSW 30 37 16 20 1003.6 1002.2 0.0
15/07:00pm 36.3 29.4 2.4 12 17.7 SW 28 35 15 19 1003.7 1002.3 0.0
15/06:30pm 37.1 29.5 0.4 10 18.7 SW 30 39 16 21 1003.6 1002.2 0.0
15/06:00pm 36.9 30.0 2.8 12 18.0 WSW 28 41 15 22 1003.6 1002.2 0.0
15/05:34pm 37.3 30.5 3.1 12 18.2 SW 28 46 15 25 1003.5 1002.1 0.0
15/05:30pm 37.7 31.6 4.6 13 18.1 WSW 26 37 14 20 1003.7 1002.3 0.0
15/05:00pm 37.1 30.3 5.2 14 17.5 WSW 30 43 16 23 1003.9 1002.5 0.0
15/04:37pm 36.2 30.1 6.4 16 16.6 WSW 28 46 15 25 1003.8 1002.4 0.0
15/04:30pm 36.4 29.3 6.6 16 16.7 SW 33 46 18 25 1003.9 1002.5 0.0
15/04:00pm 36.6 30.5 8.4 18 16.2 WSW 30 43 16 23 1004.1 1002.7 0.0
15/03:30pm 36.6 31.7 8.4 18 16.2 SW 24 39 13 21 1004.5 1003.1 0.0
15/03:00pm 35.2 30.4 8.9 20 15.2 WSW 24 39 13 21 1005.0 1003.6 0.0
15/02:30pm 34.9 30.2 9.3 21 14.8 WSW 24 35 13 19 1005.4 1004.0 0.0
15/02:00pm 33.5 29.1 8.9 22 14.0 SW 22 35 12 19 1005.7 1004.3 0.0
15/01:30pm 32.3 28.5 9.8 25 13.0 SW 20 30 11 16 1006.3 1005.0 0.0
15/01:00pm 31.4 27.3 10.2 27 12.2 SW 22 32 12 17 1006.9 1005.6 0.0
15/12:30pm 29.9 26.3 10.5 30 11.2 SW 20 30 11 16 1007.2 1005.9 0.0
15/12:00pm 28.3 25.3 10.5 33 10.2 SW 17 32 9 17 1007.4 1006.1 0.0
15/11:30am 27.0 23.6 10.7 36 9.3 SW 19 33 10 18 1007.4 1006.1 0.0
15/11:00am 26.8 23.0 11.3 38 8.9 SSW 22 28 12 15 1007.6 1006.3 0.0
15/10:30am 25.3 21.9 11.1 41 8.1 SSW 20 28 11 15 1007.6 1006.3 0.0
15/10:00am 23.9 19.6 10.9 44 7.3 SSW 24 30 13 16 1007.7 1006.4 0.0
15/09:30am 22.6 17.6 11.0 48 6.5 SSW 28 33 15 18 1007.8 1006.5 0.0
15/09:00am 22.0 16.6 10.8 49 6.2 SSW 30 35 16 19 1007.6 1006.3 0.0
15/08:30am 21.4 15.9 10.6 50 6.0 SSW 30 33 16 18 1007.5 1006.2 0.0
15/08:00am 20.7 15.5 10.2 51 5.7 SSW 28 35 15 19 1007.4 1006.1 0.0
15/07:30am 20.1 14.5 10.2 53 5.4 SW 30 35 16 19 1007.2 1005.9 0.0
15/07:00am 20.0 15.1 10.1 53 5.4 SW 26 32 14 17 1007.0 1005.7 0.0
15/06:30am 20.1 14.9 10.2 53 5.4 SW 28 32 15 17 1006.5 1005.2 0.0

Other Formats:

Comma delimited format used in spreadsheet applications
http://www.bom.gov.au/fwo/IDS60801/IDS60801.95458.axf

JavaScript Object Notation format (JSON) in row-major order
http://www.bom.gov.au/fwo/IDS60801/IDS60801.95458.json